Terminal Aerodrome Forecast
Issued by NWS Denver/Boulder, CO

Home | Current Version | Previous Version | Text Only | Print | Product List | Glossary On
Versions: 1 2 3 4 5 6 7 8 9 10 11 12 13 14 15 16 17 18 19 20 21 22 23 24 25 26 27 28 29 30 31 32 33 34 35 36 37 38 39 40 41 42 43 44 45 46 47 48 49 50
000
FTUS45 KBOU 151036 AAB
TAFDEN
TAF AMD
KDEN 151036Z 1511/1612 23004KT 3SM BR FEW080 BKN200
      TEMPO 1511/1515 1SM BR
     FM151500 24006KT 3SM BR FEW050 BKN150
     FM151700 15006KT 5SM BR FEW040 BKN080
     FM152300 15006KT 5SM BR SCT040 BKN100
      TEMPO 1601/1605 2SM -SN BR OVC020
     FM160500 13006KT 4SM BR VCSH BKN012 OVC020
      TEMPO 1608/1612 1SM -SN BR OVC008=

USA.gov is the U.S. government's official web portal to all federal, state and local government web resources and services.